sensor_id;sensor_type;location;lat;lon;timestamp;P1;durP1;ratioP1;P2;durP2;ratioP2
80425;SDS011;69766;51.476;5.704;2024-02-16T00:01:32;6.28;;;3.25;;
80425;SDS011;69766;51.476;5.704;2024-02-16T00:03:57;8.90;;;3.58;;
80425;SDS011;69766;51.476;5.704;2024-02-16T00:06:23;7.85;;;3.70;;
80425;SDS011;69766;51.476;5.704;2024-02-16T00:08:49;7.07;;;3.45;;
80425;SDS011;69766;51.476;5.704;2024-02-16T00:11:15;5.53;;;3.55;;
80425;SDS011;69766;51.476;5.704;2024-02-16T00:13:40;5.78;;;3.50;;
80425;SDS011;69766;51.476;5.704;2024-02-16T00:16:06;8.88;;;3.70;;
80425;SDS011;69766;51.476;5.704;2024-02-16T00:18:32;7.18;;;3.65;;
80425;SDS011;69766;51.476;5.704;2024-02-16T00:20:58;9.10;;;3.35;;
80425;SDS011;69766;51.476;5.704;2024-02-16T00:23:24;6.82;;;3.67;;
80425;SDS011;69766;51.476;5.704;2024-02-16T00:25:50;7.72;;;4.22;;
80425;SDS011;69766;51.476;5.704;2024-02-16T00:28:16;7.95;;;3.63;;
80425;SDS011;69766;51.476;5.704;2024-02-16T00:30:41;7.03;;;3.55;;
80425;SDS011;69766;51.476;5.704;2024-02-16T00:33:07;6.30;;;4.03;;
80425;SDS011;69766;51.476;5.704;2024-02-16T00:35:33;8.80;;;3.47;;
80425;SDS011;69766;51.476;5.704;2024-02-16T00:37:59;11.68;;;3.47;;
80425;SDS011;69766;51.476;5.704;2024-02-16T00:40:25;9.50;;;3.38;;
80425;SDS011;69766;51.476;5.704;2024-02-16T00:42:51;6.90;;;3.55;;
80425;SDS011;69766;51.476;5.704;2024-02-16T00:45:17;8.13;;;3.53;;
80425;SDS011;69766;51.476;5.704;2024-02-16T00:47:43;5.80;;;3.40;;
80425;SDS011;69766;51.476;5.704;2024-02-16T00:50:10;7.78;;;3.50;;
80425;SDS011;69766;51.476;5.704;2024-02-16T00:52:36;7.95;;;3.65;;
80425;SDS011;69766;51.476;5.704;2024-02-16T00:55:02;9.07;;;3.67;;
80425;SDS011;69766;51.476;5.704;2024-02-16T00:57:29;7.03;;;3.30;;
80425;SDS011;69766;51.476;5.704;2024-02-16T00:59:55;6.38;;;3.70;;
80425;SDS011;69766;51.476;5.704;2024-02-16T01:02:20;5.97;;;3.70;;
80425;SDS011;69766;51.476;5.704;2024-02-16T01:04:47;7.88;;;4.05;;
80425;SDS011;69766;51.476;5.704;2024-02-16T01:07:15;6.45;;;3.97;;
80425;SDS011;69766;51.476;5.704;2024-02-16T01:09:41;9.30;;;4.28;;
80425;SDS011;69766;51.476;5.704;2024-02-16T01:12:10;6.82;;;3.90;;
80425;SDS011;69766;51.476;5.704;2024-02-16T01:14:38;9.77;;;3.97;;
80425;SDS011;69766;51.476;5.704;2024-02-16T01:17:16;10.65;;;4.43;;
80425;SDS011;69766;51.476;5.704;2024-02-16T01:19:42;7.55;;;4.43;;
80425;SDS011;69766;51.476;5.704;2024-02-16T01:22:12;7.28;;;3.67;;
80425;SDS011;69766;51.476;5.704;2024-02-16T01:24:46;7.28;;;3.50;;
80425;SDS011;69766;51.476;5.704;2024-02-16T01:27:15;6.53;;;3.50;;
80425;SDS011;69766;51.476;5.704;2024-02-16T01:29:43;7.60;;;3.63;;
80425;SDS011;69766;51.476;5.704;2024-02-16T01:32:09;6.53;;;4.00;;
80425;SDS011;69766;51.476;5.704;2024-02-16T01:34:35;8.73;;;3.70;;
80425;SDS011;69766;51.476;5.704;2024-02-16T01:37:05;9.38;;;3.67;;
80425;SDS011;69766;51.476;5.704;2024-02-16T01:39:34;7.55;;;3.85;;
80425;SDS011;69766;51.476;5.704;2024-02-16T01:42:08;5.97;;;3.45;;
80425;SDS011;69766;51.476;5.704;2024-02-16T01:44:49;7.43;;;3.10;;
80425;SDS011;69766;51.476;5.704;2024-02-16T01:47:15;7.50;;;3.35;;
80425;SDS011;69766;51.476;5.704;2024-02-16T01:49:50;9.10;;;3.53;;
80425;SDS011;69766;51.476;5.704;2024-02-16T01:52:19;6.88;;;3.42;;
80425;SDS011;69766;51.476;5.704;2024-02-16T01:54:44;6.30;;;3.30;;
80425;SDS011;69766;51.476;5.704;2024-02-16T01:57:13;6.55;;;3.42;;
80425;SDS011;69766;51.476;5.704;2024-02-16T01:59:40;6.20;;;3.25;;
80425;SDS011;69766;51.476;5.704;2024-02-16T02:02:06;7.63;;;3.20;;
80425;SDS011;69766;51.476;5.704;2024-02-16T02:04:32;5.03;;;3.00;;
80425;SDS011;69766;51.476;5.704;2024-02-16T02:06:59;6.18;;;3.28;;
80425;SDS011;69766;51.476;5.704;2024-02-16T02:09:25;7.97;;;3.55;;
80425;SDS011;69766;51.476;5.704;2024-02-16T02:11:50;5.22;;;3.00;;
80425;SDS011;69766;51.476;5.704;2024-02-16T02:14:17;7.50;;;3.63;;
80425;SDS011;69766;51.476;5.704;2024-02-16T02:16:47;6.88;;;3.33;;
80425;SDS011;69766;51.476;5.704;2024-02-16T02:19:16;7.20;;;3.58;;
80425;SDS011;69766;51.476;5.704;2024-02-16T02:21:45;7.82;;;3.72;;
80425;SDS011;69766;51.476;5.704;2024-02-16T02:24:17;5.97;;;3.17;;
80425;SDS011;69766;51.476;5.704;2024-02-16T02:26:45;7.70;;;3.70;;
80425;SDS011;69766;51.476;5.704;2024-02-16T02:29:11;7.47;;;3.58;;
80425;SDS011;69766;51.476;5.704;2024-02-16T02:31:37;8.65;;;4.68;;
80425;SDS011;69766;51.476;5.704;2024-02-16T02:34:12;8.05;;;3.50;;
80425;SDS011;69766;51.476;5.704;2024-02-16T02:36:39;6.88;;;3.15;;
80425;SDS011;69766;51.476;5.704;2024-02-16T02:39:14;6.50;;;3.10;;
80425;SDS011;69766;51.476;5.704;2024-02-16T02:41:40;8.68;;;3.42;;
80425;SDS011;69766;51.476;5.704;2024-02-16T02:44:22;10.50;;;3.60;;
80425;SDS011;69766;51.476;5.704;2024-02-16T02:47:23;8.35;;;3.00;;
80425;SDS011;69766;51.476;5.704;2024-02-16T02:49:52;9.05;;;3.17;;
80425;SDS011;69766;51.476;5.704;2024-02-16T02:52:24;5.90;;;3.15;;
80425;SDS011;69766;51.476;5.704;2024-02-16T02:57:54;6.85;;;3.47;;
80425;SDS011;69766;51.476;5.704;2024-02-16T03:00:28;7.70;;;3.15;;
80425;SDS011;69766;51.476;5.704;2024-02-16T03:03:02;5.93;;;3.10;;
80425;SDS011;69766;51.476;5.704;2024-02-16T03:05:41;5.15;;;3.20;;
80425;SDS011;69766;51.476;5.704;2024-02-16T03:08:20;5.60;;;2.90;;
80425;SDS011;69766;51.476;5.704;2024-02-16T03:10:53;7.28;;;3.55;;
80425;SDS011;69766;51.476;5.704;2024-02-16T03:13:25;7.28;;;3.50;;
80425;SDS011;69766;51.476;5.704;2024-02-16T03:15:59;7.18;;;3.47;;
80425;SDS011;69766;51.476;5.704;2024-02-16T03:18:32;7.18;;;3.25;;
80425;SDS011;69766;51.476;5.704;2024-02-16T03:21:15;6.88;;;3.55;;
80425;SDS011;69766;51.476;5.704;2024-02-16T03:23:49;7.82;;;3.47;;
80425;SDS011;69766;51.476;5.704;2024-02-16T03:26:30;6.60;;;3.13;;
80425;SDS011;69766;51.476;5.704;2024-02-16T03:29:03;10.05;;;3.30;;
80425;SDS011;69766;51.476;5.704;2024-02-16T03:31:35;9.25;;;3.50;;
80425;SDS011;69766;51.476;5.704;2024-02-16T03:34:26;5.90;;;3.10;;
80425;SDS011;69766;51.476;5.704;2024-02-16T03:36:56;6.45;;;3.10;;
80425;SDS011;69766;51.476;5.704;2024-02-16T03:42:53;6.25;;;3.03;;
80425;SDS011;69766;51.476;5.704;2024-02-16T03:45:42;8.02;;;3.25;;
80425;SDS011;69766;51.476;5.704;2024-02-16T03:55:50;8.20;;;3.42;;
80425;SDS011;69766;51.476;5.704;2024-02-16T03:58:44;6.40;;;3.25;;
80425;SDS011;69766;51.476;5.704;2024-02-16T04:15:15;8.60;;;3.58;;
80425;SDS011;69766;51.476;5.704;2024-02-16T04:18:55;7.97;;;3.70;;
80425;SDS011;69766;51.476;5.704;2024-02-16T04:25:07;6.65;;;3.47;;
80425;SDS011;69766;51.476;5.704;2024-02-16T04:28:08;7.35;;;3.92;;
80425;SDS011;69766;51.476;5.704;2024-02-16T04:31:38;6.22;;;3.90;;
80425;SDS011;69766;51.476;5.704;2024-02-16T04:34:51;11.40;;;4.07;;
80425;SDS011;69766;51.476;5.704;2024-02-16T04:38:07;9.02;;;3.53;;
80425;SDS011;69766;51.476;5.704;2024-02-16T04:41:21;7.22;;;3.47;;
80425;SDS011;69766;51.476;5.704;2024-02-16T04:44:11;6.82;;;3.35;;
80425;SDS011;69766;51.476;5.704;2024-02-16T04:47:17;6.97;;;3.50;;
80425;SDS011;69766;51.476;5.704;2024-02-16T04:59:52;8.68;;;3.85;;
80425;SDS011;69766;51.476;5.704;2024-02-16T05:09:26;6.32;;;3.70;;
80425;SDS011;69766;51.476;5.704;2024-02-16T05:19:02;8.20;;;3.70;;
80425;SDS011;69766;51.476;5.704;2024-02-16T05:39:22;10.57;;;4.45;;
80425;SDS011;69766;51.476;5.704;2024-02-16T05:49:50;10.40;;;3.90;;
80425;SDS011;69766;51.476;5.704;2024-02-16T06:10:54;9.35;;;4.18;;
80425;SDS011;69766;51.476;5.704;2024-02-16T06:18:17;7.80;;;4.20;;
80425;SDS011;69766;51.476;5.704;2024-02-16T06:27:06;9.00;;;3.97;;
80425;SDS011;69766;51.476;5.704;2024-02-16T06:29:54;9.00;;;4.18;;
80425;SDS011;69766;51.476;5.704;2024-02-16T06:32:47;7.32;;;3.70;;
80425;SDS011;69766;51.476;5.704;2024-02-16T06:35:21;7.38;;;3.47;;
80425;SDS011;69766;51.476;5.704;2024-02-16T06:37:48;6.00;;;3.13;;
80425;SDS011;69766;51.476;5.704;2024-02-16T06:40:26;7.15;;;3.53;;
80425;SDS011;69766;51.476;5.704;2024-02-16T06:42:52;6.18;;;2.90;;
80425;SDS011;69766;51.476;5.704;2024-02-16T06:45:18;6.93;;;3.13;;
80425;SDS011;69766;51.476;5.704;2024-02-16T06:47:45;5.15;;;2.70;;
80425;SDS011;69766;51.476;5.704;2024-02-16T06:50:20;6.30;;;3.08;;
80425;SDS011;69766;51.476;5.704;2024-02-16T06:53:03;6.63;;;2.70;;
80425;SDS011;69766;51.476;5.704;2024-02-16T06:55:29;7.55;;;2.92;;
80425;SDS011;69766;51.476;5.704;2024-02-16T06:57:54;5.97;;;2.65;;
80425;SDS011;69766;51.476;5.704;2024-02-16T07:00:21;6.07;;;2.60;;
80425;SDS011;69766;51.476;5.704;2024-02-16T07:02:47;9.30;;;3.33;;
80425;SDS011;69766;51.476;5.704;2024-02-16T07:05:12;5.43;;;2.58;;
80425;SDS011;69766;51.476;5.704;2024-02-16T07:07:41;7.63;;;2.88;;
80425;SDS011;69766;51.476;5.704;2024-02-16T07:10:07;7.65;;;2.40;;
80425;SDS011;69766;51.476;5.704;2024-02-16T07:12:34;6.72;;;3.38;;
80425;SDS011;69766;51.476;5.704;2024-02-16T07:15:00;6.85;;;3.03;;
80425;SDS011;69766;51.476;5.704;2024-02-16T07:17:27;6.88;;;2.72;;
80425;SDS011;69766;51.476;5.704;2024-02-16T07:19:53;6.45;;;2.78;;
80425;SDS011;69766;51.476;5.704;2024-02-16T07:22:19;6.18;;;2.50;;
80425;SDS011;69766;51.476;5.704;2024-02-16T07:24:44;6.57;;;3.13;;
80425;SDS011;69766;51.476;5.704;2024-02-16T07:27:10;6.15;;;2.80;;
80425;SDS011;69766;51.476;5.704;2024-02-16T07:29:35;6.07;;;2.80;;
80425;SDS011;69766;51.476;5.704;2024-02-16T07:32:03;7.63;;;2.90;;
80425;SDS011;69766;51.476;5.704;2024-02-16T07:34:29;7.10;;;2.80;;
80425;SDS011;69766;51.476;5.704;2024-02-16T07:36:54;6.43;;;2.97;;
80425;SDS011;69766;51.476;5.704;2024-02-16T07:39:20;8.95;;;3.42;;
80425;SDS011;69766;51.476;5.704;2024-02-16T07:41:48;5.45;;;2.72;;
80425;SDS011;69766;51.476;5.704;2024-02-16T07:44:14;5.65;;;2.83;;
80425;SDS011;69766;51.476;5.704;2024-02-16T07:46:43;5.72;;;2.70;;
80425;SDS011;69766;51.476;5.704;2024-02-16T07:49:08;12.75;;;2.90;;
80425;SDS011;69766;51.476;5.704;2024-02-16T07:51:36;6.63;;;2.50;;
80425;SDS011;69766;51.476;5.704;2024-02-16T07:54:04;4.15;;;2.50;;
80425;SDS011;69766;51.476;5.704;2024-02-16T07:56:31;9.05;;;3.00;;
80425;SDS011;69766;51.476;5.704;2024-02-16T07:58:57;7.93;;;2.90;;
80425;SDS011;69766;51.476;5.704;2024-02-16T08:01:22;6.18;;;2.88;;
80425;SDS011;69766;51.476;5.704;2024-02-16T08:03:48;7.47;;;2.97;;
80425;SDS011;69766;51.476;5.704;2024-02-16T08:06:14;5.45;;;2.97;;
80425;SDS011;69766;51.476;5.704;2024-02-16T08:08:41;9.93;;;3.08;;
80425;SDS011;69766;51.476;5.704;2024-02-16T08:11:07;6.20;;;2.85;;
80425;SDS011;69766;51.476;5.704;2024-02-16T08:13:32;7.28;;;2.90;;
80425;SDS011;69766;51.476;5.704;2024-02-16T08:15:58;7.55;;;3.20;;
80425;SDS011;69766;51.476;5.704;2024-02-16T08:18:24;9.05;;;3.17;;
80425;SDS011;69766;51.476;5.704;2024-02-16T08:20:49;8.80;;;3.28;;
80425;SDS011;69766;51.476;5.704;2024-02-16T08:23:15;5.25;;;2.85;;
80425;SDS011;69766;51.476;5.704;2024-02-16T08:25:40;6.57;;;3.15;;
80425;SDS011;69766;51.476;5.704;2024-02-16T08:28:06;6.50;;;3.17;;
80425;SDS011;69766;51.476;5.704;2024-02-16T08:30:32;7.60;;;3.00;;
80425;SDS011;69766;51.476;5.704;2024-02-16T08:32:58;6.32;;;2.90;;
80425;SDS011;69766;51.476;5.704;2024-02-16T08:35:25;5.13;;;2.95;;
80425;SDS011;69766;51.476;5.704;2024-02-16T08:37:50;8.82;;;3.05;;
80425;SDS011;69766;51.476;5.704;2024-02-16T08:40:16;8.75;;;3.40;;
80425;SDS011;69766;51.476;5.704;2024-02-16T08:42:42;8.23;;;2.88;;
80425;SDS011;69766;51.476;5.704;2024-02-16T08:45:08;10.15;;;3.50;;
80425;SDS011;69766;51.476;5.704;2024-02-16T08:47:34;6.68;;;2.90;;
80425;SDS011;69766;51.476;5.704;2024-02-16T08:49:59;6.63;;;3.00;;
80425;SDS011;69766;51.476;5.704;2024-02-16T08:52:26;6.18;;;2.90;;
80425;SDS011;69766;51.476;5.704;2024-02-16T08:54:51;10.00;;;3.50;;
80425;SDS011;69766;51.476;5.704;2024-02-16T08:57:17;9.63;;;2.97;;
80425;SDS011;69766;51.476;5.704;2024-02-16T08:59:43;9.98;;;3.45;;
80425;SDS011;69766;51.476;5.704;2024-02-16T09:02:09;9.98;;;3.40;;
80425;SDS011;69766;51.476;5.704;2024-02-16T09:04:35;9.25;;;3.33;;
80425;SDS011;69766;51.476;5.704;2024-02-16T09:07:01;7.97;;;3.45;;
80425;SDS011;69766;51.476;5.704;2024-02-16T09:09:27;7.40;;;3.60;;
80425;SDS011;69766;51.476;5.704;2024-02-16T09:11:53;7.90;;;3.50;;
80425;SDS011;69766;51.476;5.704;2024-02-16T09:14:19;9.60;;;4.82;;
80425;SDS011;69766;51.476;5.704;2024-02-16T09:16:45;7.05;;;2.90;;
80425;SDS011;69766;51.476;5.704;2024-02-16T09:19:20;7.65;;;3.20;;
80425;SDS011;69766;51.476;5.704;2024-02-16T09:21:48;4.97;;;2.83;;
80425;SDS011;69766;51.476;5.704;2024-02-16T09:24:19;8.95;;;3.75;;
80425;SDS011;69766;51.476;5.704;2024-02-16T09:26:45;11.07;;;3.78;;
80425;SDS011;69766;51.476;5.704;2024-02-16T09:29:11;9.30;;;3.70;;
80425;SDS011;69766;51.476;5.704;2024-02-16T09:31:38;8.95;;;3.40;;
80425;SDS011;69766;51.476;5.704;2024-02-16T09:34:14;8.75;;;4.00;;
80425;SDS011;69766;51.476;5.704;2024-02-16T09:36:40;7.97;;;3.33;;
80425;SDS011;69766;51.476;5.704;2024-02-16T09:39:05;9.15;;;3.80;;
80425;SDS011;69766;51.476;5.704;2024-02-16T09:41:34;10.75;;;3.85;;
80425;SDS011;69766;51.476;5.704;2024-02-16T09:44:03;7.72;;;4.00;;
80425;SDS011;69766;51.476;5.704;2024-02-16T09:46:32;10.70;;;3.70;;
80425;SDS011;69766;51.476;5.704;2024-02-16T09:49:02;8.98;;;3.72;;
80425;SDS011;69766;51.476;5.704;2024-02-16T09:51:29;5.72;;;2.90;;
80425;SDS011;69766;51.476;5.704;2024-02-16T09:53:55;10.95;;;4.13;;
80425;SDS011;69766;51.476;5.704;2024-02-16T09:56:21;14.55;;;4.78;;
80425;SDS011;69766;51.476;5.704;2024-02-16T09:58:47;11.60;;;4.30;;
80425;SDS011;69766;51.476;5.704;2024-02-16T10:01:19;9.13;;;4.50;;
80425;SDS011;69766;51.476;5.704;2024-02-16T10:03:47;10.57;;;4.30;;
80425;SDS011;69766;51.476;5.704;2024-02-16T10:06:15;7.63;;;4.05;;
80425;SDS011;69766;51.476;5.704;2024-02-16T10:11:16;12.70;;;4.35;;
80425;SDS011;69766;51.476;5.704;2024-02-16T10:13:53;8.55;;;4.13;;
80425;SDS011;69766;51.476;5.704;2024-02-16T10:16:22;9.80;;;3.90;;
80425;SDS011;69766;51.476;5.704;2024-02-16T10:18:48;9.85;;;4.60;;
80425;SDS011;69766;51.476;5.704;2024-02-16T10:21:23;10.70;;;3.88;;
80425;SDS011;69766;51.476;5.704;2024-02-16T10:24:00;9.13;;;4.22;;
80425;SDS011;69766;51.476;5.704;2024-02-16T10:26:27;9.13;;;4.55;;
80425;SDS011;69766;51.476;5.704;2024-02-16T10:28:54;9.80;;;4.70;;
80425;SDS011;69766;51.476;5.704;2024-02-16T10:31:22;9.43;;;4.50;;
80425;SDS011;69766;51.476;5.704;2024-02-16T10:33:55;9.23;;;4.45;;
80425;SDS011;69766;51.476;5.704;2024-02-16T10:36:32;9.85;;;4.43;;
80425;SDS011;69766;51.476;5.704;2024-02-16T10:38:59;10.52;;;4.47;;
80425;SDS011;69766;51.476;5.704;2024-02-16T10:41:27;11.88;;;4.68;;
80425;SDS011;69766;51.476;5.704;2024-02-16T10:43:56;11.25;;;4.80;;
80425;SDS011;69766;51.476;5.704;2024-02-16T10:46:22;10.43;;;4.68;;
80425;SDS011;69766;51.476;5.704;2024-02-16T10:48:49;10.90;;;5.20;;
80425;SDS011;69766;51.476;5.704;2024-02-16T10:51:16;10.90;;;5.22;;
80425;SDS011;69766;51.476;5.704;2024-02-16T10:53:45;12.63;;;5.20;;
80425;SDS011;69766;51.476;5.704;2024-02-16T10:56:13;14.82;;;5.80;;
80425;SDS011;69766;51.476;5.704;2024-02-16T10:58:39;12.10;;;5.70;;
80425;SDS011;69766;51.476;5.704;2024-02-16T11:01:09;10.10;;;5.45;;
80425;SDS011;69766;51.476;5.704;2024-02-16T11:03:37;12.93;;;5.53;;
80425;SDS011;69766;51.476;5.704;2024-02-16T11:06:16;12.55;;;5.40;;
80425;SDS011;69766;51.476;5.704;2024-02-16T11:08:43;12.50;;;5.93;;
80425;SDS011;69766;51.476;5.704;2024-02-16T11:11:08;13.48;;;6.13;;
80425;SDS011;69766;51.476;5.704;2024-02-16T11:13:38;12.93;;;6.20;;
80425;SDS011;69766;51.476;5.704;2024-02-16T11:16:08;11.85;;;5.75;;
80425;SDS011;69766;51.476;5.704;2024-02-16T11:18:41;11.57;;;5.68;;
80425;SDS011;69766;51.476;5.704;2024-02-16T11:21:15;11.32;;;6.18;;
80425;SDS011;69766;51.476;5.704;2024-02-16T11:23:41;11.25;;;5.38;;
80425;SDS011;69766;51.476;5.704;2024-02-16T11:26:12;14.63;;;5.90;;
80425;SDS011;69766;51.476;5.704;2024-02-16T11:28:39;11.27;;;5.63;;
80425;SDS011;69766;51.476;5.704;2024-02-16T11:31:06;15.15;;;7.22;;
80425;SDS011;69766;51.476;5.704;2024-02-16T11:33:35;11.98;;;5.68;;
80425;SDS011;69766;51.476;5.704;2024-02-16T11:36:01;14.63;;;5.85;;
80425;SDS011;69766;51.476;5.704;2024-02-16T11:38:32;11.85;;;5.70;;
80425;SDS011;69766;51.476;5.704;2024-02-16T11:41:04;13.95;;;5.88;;
80425;SDS011;69766;51.476;5.704;2024-02-16T11:43:32;15.82;;;5.88;;
80425;SDS011;69766;51.476;5.704;2024-02-16T11:45:59;16.58;;;5.80;;
80425;SDS011;69766;51.476;5.704;2024-02-16T11:48:35;15.18;;;6.78;;
80425;SDS011;69766;51.476;5.704;2024-02-16T11:51:02;13.75;;;6.25;;
80425;SDS011;69766;51.476;5.704;2024-02-16T11:53:31;16.38;;;6.60;;
80425;SDS011;69766;51.476;5.704;2024-02-16T11:55:57;14.02;;;6.85;;
80425;SDS011;69766;51.476;5.704;2024-02-16T11:58:23;17.55;;;7.15;;
80425;SDS011;69766;51.476;5.704;2024-02-16T12:00:50;19.40;;;7.40;;
80425;SDS011;69766;51.476;5.704;2024-02-16T12:05:53;16.48;;;7.53;;
80425;SDS011;69766;51.476;5.704;2024-02-16T12:08:20;14.93;;;6.88;;
80425;SDS011;69766;51.476;5.704;2024-02-16T12:10:47;17.30;;;8.52;;
80425;SDS011;69766;51.476;5.704;2024-02-16T12:13:19;18.23;;;8.02;;
80425;SDS011;69766;51.476;5.704;2024-02-16T12:15:49;20.42;;;8.55;;
80425;SDS011;69766;51.476;5.704;2024-02-16T12:18:23;19.77;;;9.05;;
80425;SDS011;69766;51.476;5.704;2024-02-16T12:20:56;17.30;;;7.90;;
80425;SDS011;69766;51.476;5.704;2024-02-16T12:23:30;20.63;;;8.60;;
80425;SDS011;69766;51.476;5.704;2024-02-16T12:25:57;15.48;;;7.65;;
80425;SDS011;69766;51.476;5.704;2024-02-16T12:28:24;18.77;;;8.00;;
80425;SDS011;69766;51.476;5.704;2024-02-16T12:30:52;18.48;;;8.45;;
80425;SDS011;69766;51.476;5.704;2024-02-16T12:33:18;16.80;;;9.07;;
80425;SDS011;69766;51.476;5.704;2024-02-16T12:35:44;18.15;;;9.05;;
80425;SDS011;69766;51.476;5.704;2024-02-16T12:38:11;23.23;;;9.18;;
80425;SDS011;69766;51.476;5.704;2024-02-16T12:40:37;18.73;;;9.25;;
80425;SDS011;69766;51.476;5.704;2024-02-16T12:43:02;14.90;;;9.60;;
80425;SDS011;69766;51.476;5.704;2024-02-16T12:45:28;19.13;;;10.80;;
80425;SDS011;69766;51.476;5.704;2024-02-16T12:47:54;18.90;;;10.80;;
80425;SDS011;69766;51.476;5.704;2024-02-16T12:50:19;18.85;;;10.20;;
80425;SDS011;69766;51.476;5.704;2024-02-16T12:52:45;22.38;;;12.27;;
80425;SDS011;69766;51.476;5.704;2024-02-16T12:55:11;19.77;;;11.70;;
80425;SDS011;69766;51.476;5.704;2024-02-16T12:57:37;20.90;;;12.48;;
80425;SDS011;69766;51.476;5.704;2024-02-16T13:00:03;27.95;;;13.63;;
80425;SDS011;69766;51.476;5.704;2024-02-16T13:02:30;19.23;;;12.90;;
80425;SDS011;69766;51.476;5.704;2024-02-16T13:04:56;23.17;;;13.65;;
80425;SDS011;69766;51.476;5.704;2024-02-16T13:07:22;29.92;;;16.80;;
80425;SDS011;69766;51.476;5.704;2024-02-16T13:09:48;39.28;;;23.40;;
80425;SDS011;69766;51.476;5.704;2024-02-16T13:12:16;21.20;;;14.27;;
80425;SDS011;69766;51.476;5.704;2024-02-16T13:14:42;25.02;;;13.43;;
80425;SDS011;69766;51.476;5.704;2024-02-16T13:17:07;23.58;;;14.02;;
80425;SDS011;69766;51.476;5.704;2024-02-16T13:19:33;27.42;;;16.58;;
80425;SDS011;69766;51.476;5.704;2024-02-16T13:21:59;36.97;;;22.85;;
80425;SDS011;69766;51.476;5.704;2024-02-16T13:24:24;25.42;;;16.85;;
80425;SDS011;69766;51.476;5.704;2024-02-16T13:26:50;20.42;;;14.15;;
80425;SDS011;69766;51.476;5.704;2024-02-16T13:29:16;24.13;;;14.23;;
80425;SDS011;69766;51.476;5.704;2024-02-16T13:31:41;25.27;;;16.95;;
80425;SDS011;69766;51.476;5.704;2024-02-16T13:34:07;22.15;;;13.32;;
80425;SDS011;69766;51.476;5.704;2024-02-16T13:36:33;18.10;;;12.05;;
80425;SDS011;69766;51.476;5.704;2024-02-16T13:38:58;16.33;;;10.95;;
80425;SDS011;69766;51.476;5.704;2024-02-16T13:41:24;16.85;;;10.50;;
80425;SDS011;69766;51.476;5.704;2024-02-16T13:43:51;14.80;;;10.10;;
80425;SDS011;69766;51.476;5.704;2024-02-16T13:46:16;14.65;;;9.90;;
80425;SDS011;69766;51.476;5.704;2024-02-16T13:48:42;13.20;;;8.90;;
80425;SDS011;69766;51.476;5.704;2024-02-16T13:51:08;11.18;;;8.60;;
80425;SDS011;69766;51.476;5.704;2024-02-16T13:53:35;13.70;;;8.20;;
80425;SDS011;69766;51.476;5.704;2024-02-16T13:56:00;13.27;;;8.20;;
80425;SDS011;69766;51.476;5.704;2024-02-16T13:58:29;11.48;;;8.43;;
80425;SDS011;69766;51.476;5.704;2024-02-16T14:00:55;12.05;;;8.65;;
80425;SDS011;69766;51.476;5.704;2024-02-16T14:03:23;12.25;;;8.18;;
80425;SDS011;69766;51.476;5.704;2024-02-16T14:05:48;11.48;;;7.30;;
80425;SDS011;69766;51.476;5.704;2024-02-16T14:08:15;12.55;;;7.88;;
80425;SDS011;69766;51.476;5.704;2024-02-16T14:10:42;11.20;;;7.20;;
80425;SDS011;69766;51.476;5.704;2024-02-16T14:13:08;10.50;;;7.13;;
80425;SDS011;69766;51.476;5.704;2024-02-16T14:15:34;10.20;;;6.03;;
80425;SDS011;69766;51.476;5.704;2024-02-16T14:18:00;7.97;;;5.10;;
80425;SDS011;69766;51.476;5.704;2024-02-16T14:20:26;7.95;;;5.53;;
80425;SDS011;69766;51.476;5.704;2024-02-16T14:22:52;8.85;;;5.40;;
80425;SDS011;69766;51.476;5.704;2024-02-16T14:25:18;8.73;;;5.20;;
80425;SDS011;69766;51.476;5.704;2024-02-16T14:27:44;7.95;;;4.95;;
80425;SDS011;69766;51.476;5.704;2024-02-16T14:30:10;7.40;;;4.47;;
80425;SDS011;69766;51.476;5.704;2024-02-16T14:32:37;7.60;;;4.88;;
80425;SDS011;69766;51.476;5.704;2024-02-16T14:35:03;6.88;;;4.40;;
80425;SDS011;69766;51.476;5.704;2024-02-16T14:37:31;6.82;;;4.43;;
80425;SDS011;69766;51.476;5.704;2024-02-16T14:39:57;9.27;;;5.28;;
80425;SDS011;69766;51.476;5.704;2024-02-16T14:42:24;9.30;;;5.90;;
80425;SDS011;69766;51.476;5.704;2024-02-16T14:44:50;8.63;;;6.10;;
80425;SDS011;69766;51.476;5.704;2024-02-16T14:47:16;10.55;;;6.20;;
80425;SDS011;69766;51.476;5.704;2024-02-16T14:49:42;9.18;;;6.13;;
80425;SDS011;69766;51.476;5.704;2024-02-16T14:52:08;10.20;;;6.93;;
80425;SDS011;69766;51.476;5.704;2024-02-16T14:54:34;13.75;;;9.48;;
80425;SDS011;69766;51.476;5.704;2024-02-16T14:57:00;12.68;;;9.05;;
80425;SDS011;69766;51.476;5.704;2024-02-16T14:59:26;13.85;;;9.43;;
80425;SDS011;69766;51.476;5.704;2024-02-16T15:01:53;19.50;;;13.68;;
80425;SDS011;69766;51.476;5.704;2024-02-16T15:04:19;14.40;;;10.77;;
80425;SDS011;69766;51.476;5.704;2024-02-16T15:06:45;17.55;;;12.27;;
80425;SDS011;69766;51.476;5.704;2024-02-16T15:09:10;16.13;;;10.93;;
80425;SDS011;69766;51.476;5.704;2024-02-16T15:11:36;19.58;;;13.27;;
80425;SDS011;69766;51.476;5.704;2024-02-16T15:14:04;19.80;;;13.13;;
80425;SDS011;69766;51.476;5.704;2024-02-16T15:16:33;19.77;;;13.00;;
80425;SDS011;69766;51.476;5.704;2024-02-16T15:18:59;22.90;;;14.20;;
80425;SDS011;69766;51.476;5.704;2024-02-16T15:21:25;21.85;;;14.20;;
80425;SDS011;69766;51.476;5.704;2024-02-16T15:23:54;20.42;;;13.68;;
80425;SDS011;69766;51.476;5.704;2024-02-16T15:26:20;21.55;;;14.57;;
80425;SDS011;69766;51.476;5.704;2024-02-16T15:28:46;22.48;;;14.57;;
80425;SDS011;69766;51.476;5.704;2024-02-16T15:31:13;22.48;;;14.65;;
80425;SDS011;69766;51.476;5.704;2024-02-16T15:33:38;20.88;;;13.77;;
80425;SDS011;69766;51.476;5.704;2024-02-16T15:36:04;20.25;;;13.57;;
80425;SDS011;69766;51.476;5.704;2024-02-16T15:38:30;22.13;;;14.13;;
80425;SDS011;69766;51.476;5.704;2024-02-16T15:40:55;21.45;;;14.02;;
80425;SDS011;69766;51.476;5.704;2024-02-16T15:43:21;19.33;;;13.05;;
80425;SDS011;69766;51.476;5.704;2024-02-16T15:45:47;19.45;;;12.88;;
80425;SDS011;69766;51.476;5.704;2024-02-16T15:48:14;17.38;;;12.07;;
80425;SDS011;69766;51.476;5.704;2024-02-16T15:50:41;18.23;;;12.18;;
80425;SDS011;69766;51.476;5.704;2024-02-16T15:53:08;15.13;;;10.77;;
80425;SDS011;69766;51.476;5.704;2024-02-16T15:55:33;14.85;;;9.25;;
80425;SDS011;69766;51.476;5.704;2024-02-16T15:57:59;13.88;;;8.70;;
80425;SDS011;69766;51.476;5.704;2024-02-16T16:00:25;11.88;;;8.50;;
80425;SDS011;69766;51.476;5.704;2024-02-16T16:02:51;17.35;;;9.18;;
80425;SDS011;69766;51.476;5.704;2024-02-16T16:05:17;21.95;;;14.70;;
80425;SDS011;69766;51.476;5.704;2024-02-16T16:07:43;14.10;;;8.48;;
80425;SDS011;69766;51.476;5.704;2024-02-16T16:10:09;11.82;;;7.95;;
80425;SDS011;69766;51.476;5.704;2024-02-16T16:12:36;11.25;;;7.07;;
80425;SDS011;69766;51.476;5.704;2024-02-16T16:15:01;12.15;;;7.80;;
80425;SDS011;69766;51.476;5.704;2024-02-16T16:17:27;13.00;;;8.02;;
80425;SDS011;69766;51.476;5.704;2024-02-16T16:19:53;12.95;;;8.25;;
80425;SDS011;69766;51.476;5.704;2024-02-16T16:22:18;13.50;;;8.50;;
80425;SDS011;69766;51.476;5.704;2024-02-16T16:24:44;10.30;;;7.22;;
80425;SDS011;69766;51.476;5.704;2024-02-16T16:27:10;11.98;;;7.40;;
80425;SDS011;69766;51.476;5.704;2024-02-16T16:29:37;15.82;;;8.73;;
80425;SDS011;69766;51.476;5.704;2024-02-16T16:32:04;10.85;;;7.82;;
80425;SDS011;69766;51.476;5.704;2024-02-16T16:34:31;11.90;;;8.15;;
80425;SDS011;69766;51.476;5.704;2024-02-16T16:36:56;12.48;;;7.00;;
80425;SDS011;69766;51.476;5.704;2024-02-16T16:39:22;12.18;;;7.53;;
80425;SDS011;69766;51.476;5.704;2024-02-16T16:41:49;11.63;;;7.63;;
80425;SDS011;69766;51.476;5.704;2024-02-16T16:44:15;12.30;;;7.43;;
80425;SDS011;69766;51.476;5.704;2024-02-16T16:46:43;10.27;;;6.80;;
80425;SDS011;69766;51.476;5.704;2024-02-16T16:49:09;11.75;;;7.88;;